Time;durP1;ratioP1;P1;durP2;ratioP2;P2;SDS_P1;SDS_P2;PMS_P1;PMS_P2;Temp;Humidity;BMP_temperature;BMP_pressure;BME280_temperature;BME280_humidity;BME280_pressure;Samples;Min_cycle;Max_cycle;Signal;HPM_P1;HPM_P2
2023/11/20 00:00:18;;;;;;;12.73;2.37;;;11.50;99.90;;;;;;5124788;28;20492;-82
2023/11/20 00:02:46;;;;;;;6.53;1.97;;;11.50;99.90;;;;;;5126757;28;20492;-83
2023/11/20 00:05:13;;;;;;;7.50;2.97;;;11.60;99.90;;;;;;5126403;28;20558;-80
2023/11/20 00:07:40;;;;;;;6.10;2.37;;;11.60;99.90;;;;;;5124925;28;20463;-80
2023/11/20 00:10:08;;;;;;;7.07;2.30;;;11.50;99.90;;;;;;5125279;28;20451;-82
2023/11/20 00:12:35;;;;;;;7.13;2.83;;;11.60;99.90;;;;;;5125109;28;20553;-83
2023/11/20 00:15:02;;;;;;;6.70;2.40;;;11.60;99.90;;;;;;5122875;28;20452;-82
2023/11/20 00:17:29;;;;;;;8.77;2.07;;;11.60;99.90;;;;;;5123576;28;20477;-83
2023/11/20 00:19:57;;;;;;;10.37;3.00;;;11.50;99.90;;;;;;5123424;28;21011;-82
2023/11/20 00:22:23;;;;;;;6.20;2.07;;;11.50;99.90;;;;;;5123535;28;20511;-82
2023/11/20 00:24:51;;;;;;;6.23;2.43;;;11.60;99.90;;;;;;5124715;28;20520;-79
2023/11/20 00:27:17;;;;;;;9.73;2.50;;;11.70;99.90;;;;;;5124470;28;20483;-81
2023/11/20 00:29:44;;;;;;;7.30;2.70;;;11.60;99.90;;;;;;5121303;28;20447;-82
2023/11/20 00:32:13;;;;;;;10.00;3.67;;;11.60;99.90;;;;;;5123015;28;20462;-81
2023/11/20 00:34:40;;;;;;;8.53;2.70;;;11.70;99.90;;;;;;5122731;28;20471;-81
2023/11/20 00:37:10;;;;;;;6.10;2.03;;;11.70;99.90;;;;;;5123459;28;20530;-83
2023/11/20 00:39:36;;;;;;;13.60;2.40;;;11.70;99.90;;;;;;5122388;28;20482;-82
2023/11/20 00:42:04;;;;;;;23.33;3.70;;;11.80;99.90;;;;;;5122458;28;20462;-82
2023/11/20 00:44:31;;;;;;;11.23;2.27;;;11.80;99.90;;;;;;5123142;28;20460;-78
2023/11/20 00:46:58;;;;;;;9.60;2.30;;;11.80;99.90;;;;;;5118403;28;20533;-81
2023/11/20 00:49:24;;;;;;;6.30;2.40;;;11.80;99.90;;;;;;5119107;28;20458;-82
2023/11/20 00:51:51;;;;;;;6.10;2.10;;;11.80;99.90;;;;;;5110716;28;20842;-80
2023/11/20 00:54:19;;;;;;;7.10;2.30;;;11.70;99.90;;;;;;5118889;28;20823;-81
2023/11/20 00:56:46;;;;;;;6.23;2.27;;;11.70;99.90;;;;;;5117543;28;20473;-83
2023/11/20 00:59:13;;;;;;;5.20;1.80;;;11.80;99.90;;;;;;5112496;28;21025;-82
2023/11/20 01:01:40;;;;;;;4.83;2.50;;;11.80;99.90;;;;;;5118008;28;20472;-83
2023/11/20 01:04:07;;;;;;;5.63;1.80;;;11.80;99.90;;;;;;5118346;28;20442;-81
2023/11/20 01:06:39;;;;;;;7.87;2.10;;;11.80;99.90;;;;;;5118629;27;20557;-80
2023/11/20 01:09:06;;;;;;;11.73;2.20;;;11.80;99.90;;;;;;5116664;28;20455;-81
2023/11/20 01:11:36;;;;;;;12.00;2.60;;;11.80;99.90;;;;;;5117548;28;20465;-81
2023/11/20 01:14:05;;;;;;;7.87;2.43;;;11.80;99.90;;;;;;5118342;28;20460;-80
2023/11/20 01:16:32;;;;;;;9.93;2.40;;;11.80;99.90;;;;;;5117318;28;20522;-80
2023/11/20 01:18:58;;;;;;;7.80;3.03;;;11.80;99.90;;;;;;5117514;28;20570;-81
2023/11/20 01:21:25;;;;;;;7.57;3.20;;;11.80;99.90;;;;;;5117077;28;20462;-83
2023/11/20 01:23:52;;;;;;;5.00;1.93;;;11.80;99.90;;;;;;5117489;28;20473;-80
2023/11/20 01:26:19;;;;;;;9.07;2.57;;;11.80;99.90;;;;;;5117154;28;21007;-82
2023/11/20 01:28:48;;;;;;;9.83;2.27;;;11.90;99.90;;;;;;5116778;28;20985;-80
2023/11/20 01:31:15;;;;;;;7.90;3.67;;;11.90;99.90;;;;;;5117384;28;20457;-81
2023/11/20 01:33:41;;;;;;;7.33;2.27;;;11.80;99.90;;;;;;5117003;28;20631;-80
2023/11/20 01:36:09;;;;;;;9.23;2.07;;;11.80;99.90;;;;;;5116329;28;20467;-81
2023/11/20 01:38:36;;;;;;;9.00;1.87;;;11.80;99.90;;;;;;5117678;28;20452;-81
2023/11/20 01:41:02;;;;;;;6.97;2.00;;;11.80;99.90;;;;;;5116790;28;20454;-82
2023/11/20 01:43:29;;;;;;;6.37;1.97;;;11.80;99.90;;;;;;5116156;28;20461;-81
2023/11/20 01:46:06;;;;;;;9.80;2.50;;;11.90;99.90;;;;;;5118422;28;20872;-81
2023/11/20 01:48:33;;;;;;;6.60;1.90;;;11.80;99.90;;;;;;5118118;28;20509;-82
2023/11/20 01:51:00;;;;;;;5.40;2.10;;;11.70;99.90;;;;;;5118495;28;20999;-81
2023/11/20 01:53:29;;;;;;;6.93;1.77;;;11.80;99.90;;;;;;5118143;28;20449;-80
2023/11/20 01:55:56;;;;;;;8.63;2.50;;;11.80;99.90;;;;;;5118939;28;20477;-81
2023/11/20 01:58:23;;;;;;;5.40;1.70;;;11.80;99.90;;;;;;5116869;28;20471;-83
2023/11/20 02:00:50;;;;;;;8.97;2.00;;;11.80;99.90;;;;;;5119125;28;20525;-77
2023/11/20 02:03:20;;;;;;;8.10;2.37;;;11.90;99.90;;;;;;5117790;28;20455;-81
2023/11/20 02:05:47;;;;;;;6.77;2.37;;;11.90;99.90;;;;;;5118156;28;20500;-82
2023/11/20 02:08:14;;;;;;;7.17;2.50;;;11.90;99.90;;;;;;5118067;28;20445;-80
2023/11/20 02:10:41;;;;;;;5.43;2.23;;;11.80;99.90;;;;;;5117949;28;20457;-80
2023/11/20 02:13:08;;;;;;;10.37;2.47;;;11.80;99.90;;;;;;5117919;28;20515;-82
2023/11/20 02:15:35;;;;;;;7.40;2.30;;;11.90;99.90;;;;;;5117409;28;20560;-83
2023/11/20 02:18:03;;;;;;;5.27;1.33;;;11.80;99.90;;;;;;5116287;28;20461;-80
2023/11/20 02:20:31;;;;;;;7.70;2.10;;;11.90;99.90;;;;;;5116611;28;20485;-82
2023/11/20 02:22:58;;;;;;;7.17;2.03;;;11.90;99.90;;;;;;5116782;28;20518;-82
2023/11/20 02:25:24;;;;;;;7.53;2.10;;;11.90;99.90;;;;;;5117193;28;20450;-82
2023/11/20 02:27:58;;;;;;;4.53;1.90;;;11.90;99.90;;;;;;5116526;28;20540;-80
2023/11/20 02:30:28;;;;;;;2.90;2.57;;;11.90;99.90;;;;;;5116379;28;20453;-81
2023/11/20 02:32:55;;;;;;;4.87;1.97;;;11.90;99.90;;;;;;5116227;27;20465;-81
2023/11/20 02:35:24;;;;;;;6.97;1.90;;;11.90;99.90;;;;;;5116517;27;20449;-81
2023/11/20 02:37:52;;;;;;;5.70;2.07;;;11.80;99.90;;;;;;5116410;28;20520;-81
2023/11/20 02:40:19;;;;;;;5.73;1.70;;;11.90;99.90;;;;;;5116328;28;20493;-82
2023/11/20 02:42:47;;;;;;;7.50;2.00;;;11.80;99.90;;;;;;5115449;28;20460;-82
2023/11/20 02:45:14;;;;;;;3.70;1.90;;;11.90;99.90;;;;;;5126001;28;20452;-81
2023/11/20 02:47:42;;;;;;;5.50;2.30;;;11.80;99.90;;;;;;5123266;28;20536;-82
2023/11/20 02:50:09;;;;;;;6.70;2.10;;;11.80;99.90;;;;;;5123989;27;20486;-81
2023/11/20 02:52:36;;;;;;;6.90;2.40;;;11.90;99.90;;;;;;5116851;28;20550;-81
2023/11/20 02:55:06;;;;;;;6.40;2.17;;;11.80;99.90;;;;;;5114992;28;20460;-80
2023/11/20 02:57:33;;;;;;;5.63;2.37;;;11.80;99.90;;;;;;5113822;28;20481;-82
2023/11/20 03:00:00;;;;;;;11.57;2.67;;;11.80;99.90;;;;;;5114670;28;20567;-82
2023/11/20 03:02:27;;;;;;;8.40;3.07;;;11.80;99.90;;;;;;5114325;28;20443;-79
2023/11/20 03:04:56;;;;;;;5.73;2.33;;;11.80;99.90;;;;;;5114724;28;20464;-79
2023/11/20 03:07:23;;;;;;;7.53;2.37;;;11.80;99.90;;;;;;5115168;28;20858;-80
2023/11/20 03:09:50;;;;;;;8.33;2.37;;;11.80;99.90;;;;;;5114629;28;20450;-80
2023/11/20 03:12:17;;;;;;;8.60;2.80;;;11.80;99.90;;;;;;5114221;28;20452;-82
2023/11/20 03:14:44;;;;;;;10.70;3.00;;;11.80;99.90;;;;;;5113626;28;20542;-79
2023/11/20 03:17:11;;;;;;;9.00;2.67;;;11.90;99.90;;;;;;5114367;28;20482;-81
2023/11/20 03:19:38;;;;;;;5.70;2.27;;;11.90;99.90;;;;;;5113260;28;20488;-81
2023/11/20 03:22:08;;;;;;;6.63;3.53;;;11.80;99.90;;;;;;5114293;28;20462;-80
2023/11/20 03:24:35;;;;;;;7.87;3.07;;;11.80;99.90;;;;;;5113576;28;20456;-79
2023/11/20 03:27:02;;;;;;;12.10;2.73;;;11.80;99.90;;;;;;5114319;28;20473;-81
2023/11/20 03:29:29;;;;;;;11.30;3.37;;;11.80;99.90;;;;;;5113896;28;20450;-81
2023/11/20 03:31:58;;;;;;;8.33;3.50;;;11.70;99.90;;;;;;5113906;28;20463;-79
2023/11/20 03:34:24;;;;;;;8.87;3.20;;;11.60;99.90;;;;;;5113673;28;20460;-80
2023/11/20 03:36:51;;;;;;;9.83;3.17;;;11.60;99.90;;;;;;5114581;28;20476;-81
2023/11/20 03:39:19;;;;;;;10.00;2.80;;;11.50;99.90;;;;;;5114019;28;20449;-80
2023/11/20 03:41:46;;;;;;;7.17;3.03;;;11.50;99.90;;;;;;5115211;28;20461;-79
2023/11/20 03:44:13;;;;;;;6.73;2.47;;;11.50;99.90;;;;;;5113435;28;20456;-80
2023/11/20 03:46:40;;;;;;;6.30;3.47;;;11.40;99.90;;;;;;5114122;28;20863;-78
2023/11/20 03:49:07;;;;;;;11.07;3.20;;;11.30;99.90;;;;;;5114782;28;20460;-81
2023/11/20 03:51:34;;;;;;;10.60;3.83;;;11.20;99.90;;;;;;5113221;28;20528;-79
2023/11/20 03:54:01;;;;;;;8.93;3.10;;;11.20;99.90;;;;;;5115402;28;20461;-80
2023/11/20 03:56:33;;;;;;;8.63;3.83;;;11.20;99.90;;;;;;5114573;28;20850;-79
2023/11/20 03:58:59;;;;;;;14.93;3.20;;;11.20;99.90;;;;;;5113999;28;20464;-81
2023/11/20 04:01:26;;;;;;;13.20;3.80;;;11.20;99.90;;;;;;5114159;28;20493;-81
2023/11/20 04:03:53;;;;;;;12.30;3.90;;;11.20;99.90;;;;;;5113805;28;20456;-81
2023/11/20 04:06:26;;;;;;;9.10;3.20;;;11.10;99.90;;;;;;5114686;28;20476;-80
2023/11/20 04:08:53;;;;;;;11.43;3.70;;;11.10;99.90;;;;;;5115721;28;20457;-81
2023/11/20 04:11:21;;;;;;;9.57;3.87;;;11.20;99.90;;;;;;5114868;28;20453;-79
2023/11/20 04:13:49;;;;;;;11.47;3.70;;;11.20;99.90;;;;;;5110592;28;20453;-83
2023/11/20 04:16:16;;;;;;;8.77;3.87;;;11.30;99.90;;;;;;5109703;28;20478;-80
2023/11/20 04:18:44;;;;;;;10.27;3.67;;;11.30;99.90;;;;;;5113182;28;20450;-81
2023/11/20 04:21:11;;;;;;;17.50;4.63;;;11.20;99.90;;;;;;5114322;28;20516;-81
2023/11/20 04:23:38;;;;;;;12.33;4.27;;;11.20;99.90;;;;;;5113736;28;20459;-80
2023/11/20 04:26:05;;;;;;;8.43;3.90;;;11.20;99.90;;;;;;5114424;28;20473;-81
2023/11/20 04:28:32;;;;;;;6.87;3.30;;;11.20;99.90;;;;;;5113639;28;20966;-80
2023/11/20 04:31:00;;;;;;;12.43;3.27;;;11.20;99.90;;;;;;5114698;28;20838;-81
2023/11/20 04:33:27;;;;;;;7.67;3.60;;;11.20;99.90;;;;;;5122854;28;20452;-79
2023/11/20 04:35:54;;;;;;;11.17;3.70;;;11.20;99.90;;;;;;5132861;28;20529;-82
2023/11/20 04:38:28;;;;;;;12.57;3.87;;;11.20;99.90;;;;;;5129753;28;20559;-81
2023/11/20 04:40:55;;;;;;;9.43;3.10;;;11.10;99.90;;;;;;5129495;28;20556;-80
2023/11/20 04:43:21;;;;;;;6.47;2.70;;;11.20;99.90;;;;;;5126912;28;20456;-79
2023/11/20 04:45:48;;;;;;;9.20;3.70;;;11.10;99.90;;;;;;5131278;28;20469;-80
2023/11/20 04:48:16;;;;;;;9.03;3.47;;;11.10;99.90;;;;;;5125709;28;20555;-80
2023/11/20 04:50:43;;;;;;;12.23;3.43;;;11.10;99.90;;;;;;5120784;27;20942;-82
2023/11/20 04:53:10;;;;;;;8.63;4.67;;;11.10;99.90;;;;;;5119647;28;20454;-81
2023/11/20 04:55:37;;;;;;;9.00;2.90;;;11.10;99.90;;;;;;5121050;28;20475;-82
2023/11/20 04:58:04;;;;;;;8.37;3.77;;;11.10;99.90;;;;;;5118525;28;20845;-81
2023/11/20 05:00:31;;;;;;;13.10;3.77;;;11.10;99.90;;;;;;5112116;27;20482;-82
2023/11/20 05:02:58;;;;;;;10.37;3.27;;;11.10;99.90;;;;;;5117697;27;20459;-83
2023/11/20 05:05:26;;;;;;;8.67;3.40;;;11.10;99.90;;;;;;5118401;28;20469;-82
2023/11/20 05:07:54;;;;;;;10.37;3.63;;;11.10;99.90;;;;;;5118589;28;20452;-82
2023/11/20 05:10:21;;;;;;;5.10;2.87;;;11.10;99.90;;;;;;5116526;28;20453;-83
2023/11/20 05:12:49;;;;;;;7.87;3.50;;;11.10;99.90;;;;;;5118623;28;20457;-80
2023/11/20 05:15:16;;;;;;;7.87;3.80;;;11.10;99.90;;;;;;5119262;28;20478;-80
2023/11/20 05:17:42;;;;;;;8.77;2.60;;;11.10;99.90;;;;;;5119499;28;21009;-79
2023/11/20 05:20:10;;;;;;;8.57;3.50;;;11.10;99.90;;;;;;5118975;28;21004;-81
2023/11/20 05:22:39;;;;;;;11.60;3.47;;;11.10;99.90;;;;;;5117895;28;20458;-81
2023/11/20 05:25:07;;;;;;;5.20;2.80;;;11.20;99.90;;;;;;5115883;28;20449;-80
2023/11/20 05:27:34;;;;;;;11.90;3.00;;;11.20;99.90;;;;;;5109418;27;20482;-79
2023/11/20 05:30:01;;;;;;;6.87;3.13;;;11.20;99.90;;;;;;5117793;28;20455;-79
2023/11/20 05:32:28;;;;;;;11.83;2.77;;;11.20;99.90;;;;;;5118108;27;20479;-80
2023/11/20 05:34:54;;;;;;;13.07;3.63;;;11.20;99.90;;;;;;5112869;28;21004;-80
2023/11/20 05:37:23;;;;;;;6.63;2.90;;;11.20;99.90;;;;;;5117988;28;20532;-79
2023/11/20 05:39:51;;;;;;;6.10;2.50;;;11.30;99.90;;;;;;5117688;28;20470;-79
2023/11/20 05:42:17;;;;;;;8.60;3.50;;;11.30;99.90;;;;;;5118907;28;21188;-82
2023/11/20 05:44:46;;;;;;;8.00;3.17;;;11.30;99.90;;;;;;5122105;28;20449;-82
2023/11/20 05:47:13;;;;;;;10.37;3.93;;;11.40;99.90;;;;;;5121951;28;20484;-83
2023/11/20 05:49:40;;;;;;;7.00;2.30;;;11.30;99.90;;;;;;5122434;28;20449;-84
2023/11/20 05:52:07;;;;;;;7.33;2.97;;;11.40;99.90;;;;;;5119604;28;20451;-80
2023/11/20 05:54:34;;;;;;;6.47;2.60;;;11.40;99.90;;;;;;5115505;28;21061;-79
2023/11/20 05:57:02;;;;;;;5.50;2.90;;;11.40;99.90;;;;;;5116216;28;20952;-79
2023/11/20 05:59:30;;;;;;;9.77;2.80;;;11.40;99.90;;;;;;5115505;28;20929;-80
2023/11/20 06:01:57;;;;;;;9.10;3.10;;;11.40;99.90;;;;;;5115369;28;20500;-80
2023/11/20 06:04:23;;;;;;;6.00;2.63;;;11.50;99.90;;;;;;5116522;28;20949;-80
2023/11/20 06:06:50;;;;;;;7.60;2.83;;;11.50;99.90;;;;;;5114624;28;20564;-79
2023/11/20 06:09:17;;;;;;;5.23;2.50;;;11.40;99.90;;;;;;5113222;28;20453;-78
2023/11/20 06:11:48;;;;;;;7.07;3.13;;;11.50;99.90;;;;;;5110740;28;20455;-82
2023/11/20 06:14:16;;;;;;;9.40;3.90;;;11.50;99.90;;;;;;5117318;28;20450;-80
2023/11/20 06:16:43;;;;;;;8.13;3.70;;;11.40;99.90;;;;;;5117382;28;20484;-79
2023/11/20 06:19:10;;;;;;;5.77;2.73;;;11.40;99.90;;;;;;5117394;27;20555;-80
2023/11/20 06:21:44;;;;;;;11.57;4.43;;;11.30;99.90;;;;;;5117833;28;20575;-79
2023/11/20 06:24:11;;;;;;;5.17;3.10;;;11.20;99.90;;;;;;5115042;28;20563;-80
2023/11/20 06:26:38;;;;;;;4.83;3.00;;;11.20;99.90;;;;;;5120776;28;20480;-80
2023/11/20 06:29:04;;;;;;;7.17;3.87;;;11.20;99.90;;;;;;5119440;28;20834;-81
2023/11/20 06:31:33;;;;;;;5.20;3.40;;;11.10;99.90;;;;;;5122027;28;20458;-80
2023/11/20 06:33:59;;;;;;;6.40;3.70;;;11.10;99.90;;;;;;5113391;28;20462;-79
2023/11/20 06:36:26;;;;;;;10.40;4.23;;;11.10;99.90;;;;;;5120872;28;20489;-80
2023/11/20 06:38:53;;;;;;;10.60;4.33;;;11.00;99.90;;;;;;5119289;28;20453;-82
2023/11/20 06:41:21;;;;;;;9.77;4.10;;;11.10;99.90;;;;;;5117332;28;20484;-79
2023/11/20 06:43:48;;;;;;;10.17;4.33;;;11.00;99.90;;;;;;5118441;28;20457;-78
2023/11/20 06:46:18;;;;;;;12.07;4.97;;;11.00;99.90;;;;;;5116929;28;21036;-78
2023/11/20 06:48:46;;;;;;;17.00;5.37;;;11.00;99.90;;;;;;5112100;28;20843;-80
2023/11/20 06:51:13;;;;;;;10.63;4.90;;;11.00;99.90;;;;;;5108470;28;20453;-79
2023/11/20 06:53:40;;;;;;;11.40;4.40;;;11.00;99.90;;;;;;5110266;28;20814;-80
2023/11/20 06:56:15;;;;;;;8.90;5.10;;;11.10;99.90;;;;;;5108939;28;20468;-79
2023/11/20 06:58:42;;;;;;;14.33;5.87;;;11.10;99.90;;;;;;5109117;28;20457;-80
2023/11/20 07:01:12;;;;;;;12.20;5.70;;;11.00;99.90;;;;;;5107608;28;21025;-79
2023/11/20 07:03:42;;;;;;;11.53;4.87;;;11.10;99.90;;;;;;5108256;28;20452;-81
2023/11/20 07:06:11;;;;;;;10.13;4.47;;;11.10;99.90;;;;;;5106400;28;20469;-81
2023/11/20 07:08:38;;;;;;;10.73;4.87;;;11.10;99.90;;;;;;5101730;28;20449;-80
2023/11/20 07:11:05;;;;;;;16.70;5.63;;;11.10;99.90;;;;;;5111027;27;20437;-81
2023/11/20 07:13:32;;;;;;;12.00;4.47;;;11.10;99.90;;;;;;5110149;28;20929;-81
2023/11/20 07:15:59;;;;;;;9.53;4.10;;;11.20;99.90;;;;;;5104656;28;20686;-82
2023/11/20 07:18:25;;;;;;;9.40;4.10;;;11.20;99.90;;;;;;5103800;28;20887;-82
2023/11/20 07:20:53;;;;;;;16.10;5.00;;;11.20;99.90;;;;;;5103460;28;20492;-82
2023/11/20 07:23:21;;;;;;;10.27;4.40;;;11.20;99.90;;;;;;5104874;28;20457;-81
2023/11/20 07:25:48;;;;;;;11.87;4.60;;;11.10;99.90;;;;;;5096269;28;20481;-82
2023/11/20 07:28:15;;;;;;;11.90;5.60;;;11.10;99.90;;;;;;5100454;28;20484;-81
2023/11/20 07:30:43;;;;;;;11.60;4.80;;;11.10;99.90;;;;;;5112623;28;20465;-81
2023/11/20 07:33:10;;;;;;;12.47;4.83;;;11.10;99.90;;;;;;5108306;28;20458;-82
2023/11/20 07:35:38;;;;;;;12.93;5.30;;;11.10;99.90;;;;;;5110455;28;20473;-81
2023/11/20 07:38:04;;;;;;;13.77;5.20;;;11.20;99.90;;;;;;5108733;28;20956;-82
2023/11/20 07:40:46;;;;;;;12.27;4.50;;;11.20;99.90;;;;;;5112632;28;20450;-80
2023/11/20 07:43:13;;;;;;;15.83;5.47;;;11.20;99.90;;;;;;5107852;28;21005;-81
2023/11/20 07:45:40;;;;;;;15.47;5.30;;;11.20;99.90;;;;;;5100048;28;20483;-82
2023/11/20 07:48:07;;;;;;;12.50;5.20;;;11.30;99.90;;;;;;5107916;28;20465;-81
2023/11/20 07:50:34;;;;;;;12.83;4.20;;;11.20;99.90;;;;;;5103827;28;20494;-81
2023/11/20 07:53:04;;;;;;;12.13;3.70;;;11.30;99.90;;;;;;5103925;28;20452;-81
2023/11/20 07:55:31;;;;;;;18.37;5.40;;;11.30;99.90;;;;;;5100846;28;20457;-81
2023/11/20 07:57:59;;;;;;;14.83;4.80;;;11.30;99.90;;;;;;5098229;28;20905;-81
2023/11/20 08:00:26;;;;;;;14.57;5.17;;;11.40;99.90;;;;;;5106847;28;20519;-82
2023/11/20 08:02:53;;;;;;;16.43;6.30;;;11.40;99.90;;;;;;5104017;28;20515;-82
2023/11/20 08:05:20;;;;;;;15.23;4.47;;;11.40;99.90;;;;;;5102058;28;20495;-81
2023/11/20 08:07:48;;;;;;;13.23;3.87;;;11.40;99.90;;;;;;5104894;28;20450;-82
2023/11/20 08:10:18;;;;;;;9.77;4.10;;;11.40;99.90;;;;;;5119195;28;20456;-82
2023/11/20 08:12:46;;;;;;;9.50;4.33;;;11.40;99.90;;;;;;5108939;28;20446;-82
2023/11/20 08:15:14;;;;;;;11.80;4.40;;;11.40;99.90;;;;;;5114351;28;20480;-82
2023/11/20 08:17:41;;;;;;;10.00;3.73;;;11.50;99.90;;;;;;5110027;28;20530;-81
2023/11/20 08:20:09;;;;;;;17.30;4.00;;;11.60;99.90;;;;;;5106474;28;20465;-82
2023/11/20 08:22:37;;;;;;;10.23;3.50;;;11.70;99.90;;;;;;5111207;28;20485;-82
2023/11/20 08:25:04;;;;;;;11.20;3.10;;;11.70;99.90;;;;;;5114911;28;20449;-82
2023/11/20 08:27:31;;;;;;;11.73;3.50;;;11.80;99.90;;;;;;5114574;28;20468;-81
2023/11/20 08:29:58;;;;;;;14.23;3.00;;;11.80;99.90;;;;;;5113006;27;20500;-81
2023/11/20 08:32:26;;;;;;;16.27;3.43;;;11.90;99.90;;;;;;5113458;28;20446;-82
2023/11/20 08:34:53;;;;;;;13.27;3.13;;;11.70;99.90;;;;;;5107388;28;20465;-81
2023/11/20 08:37:20;;;;;;;8.67;3.80;;;11.70;99.90;;;;;;5112609;28;20470;-83
2023/11/20 08:39:48;;;;;;;18.40;3.40;;;11.60;99.90;;;;;;5109119;28;20473;-83
2023/11/20 08:42:18;;;;;;;14.00;3.60;;;11.70;99.90;;;;;;5106747;28;20494;-80
2023/11/20 08:44:45;;;;;;;14.83;3.33;;;11.70;99.90;;;;;;5116050;28;20445;-82
2023/11/20 08:47:11;;;;;;;10.60;2.73;;;11.70;99.90;;;;;;5112942;28;20501;-83
2023/11/20 08:49:41;;;;;;;14.80;3.33;;;11.70;99.90;;;;;;5109787;28;20465;-82
2023/11/20 08:52:08;;;;;;;13.70;4.03;;;11.80;99.90;;;;;;5115846;28;20457;-80
2023/11/20 08:54:34;;;;;;;6.77;2.80;;;11.90;99.90;;;;;;5117200;28;20454;-80
2023/11/20 08:57:01;;;;;;;16.30;3.93;;;12.00;99.90;;;;;;5119437;28;20485;-80
2023/11/20 08:59:28;;;;;;;11.87;3.33;;;12.00;99.90;;;;;;5110980;28;20459;-79
2023/11/20 09:01:56;;;;;;;8.30;2.83;;;12.00;99.90;;;;;;5104907;28;20496;-82
2023/11/20 09:04:24;;;;;;;12.90;3.50;;;12.10;99.90;;;;;;5108715;28;20471;-81
2023/11/20 09:06:52;;;;;;;11.60;3.00;;;12.00;99.90;;;;;;5114825;28;20480;-81
2023/11/20 09:09:19;;;;;;;12.90;4.30;;;12.10;99.90;;;;;;5116368;28;20475;-81
2023/11/20 09:11:46;;;;;;;10.43;3.43;;;12.20;99.90;;;;;;5112487;28;20832;-83
2023/11/20 09:14:14;;;;;;;10.27;3.10;;;12.20;99.90;;;;;;5113929;27;20446;-84
2023/11/20 09:16:41;;;;;;;10.67;3.47;;;12.30;99.90;;;;;;5117285;27;20509;-81
2023/11/20 09:19:07;;;;;;;12.83;4.07;;;12.40;99.90;;;;;;5113713;28;20460;-80
2023/11/20 09:21:34;;;;;;;11.80;3.13;;;12.50;99.90;;;;;;5112931;28;20487;-83
2023/11/20 09:24:02;;;;;;;9.03;3.33;;;12.60;99.90;;;;;;5116549;28;20457;-82
2023/11/20 09:26:29;;;;;;;9.03;2.90;;;12.50;99.90;;;;;;5106524;28;20545;-83
2023/11/20 09:28:56;;;;;;;10.63;4.70;;;12.40;99.90;;;;;;5108269;28;20832;-83
2023/11/20 09:31:23;;;;;;;9.83;3.07;;;12.40;99.90;;;;;;5110094;28;20446;-83
2023/11/20 09:33:50;;;;;;;14.70;4.53;;;12.20;99.90;;;;;;5111891;28;20635;-81
2023/11/20 09:36:17;;;;;;;8.27;3.00;;;12.10;99.90;;;;;;5108231;28;20532;-82
2023/11/20 09:38:45;;;;;;;9.80;3.20;;;12.10;99.90;;;;;;5112890;28;20508;-82
2023/11/20 09:41:14;;;;;;;9.93;3.03;;;12.20;99.90;;;;;;5114894;28;20504;-83
2023/11/20 09:43:43;;;;;;;8.00;2.83;;;12.20;99.90;;;;;;5122170;28;20473;-82
2023/11/20 09:46:12;;;;;;;14.23;2.87;;;12.10;99.90;;;;;;5118838;28;20850;-84
2023/11/20 09:48:40;;;;;;;11.40;3.10;;;12.00;99.90;;;;;;5115516;28;20521;-82
2023/11/20 09:51:09;;;;;;;10.53;3.27;;;12.00;99.90;;;;;;5110864;28;20460;-83
2023/11/20 09:53:38;;;;;;;12.27;2.57;;;12.10;99.90;;;;;;5114475;28;20457;-82
2023/11/20 09:56:07;;;;;;;11.47;2.50;;;12.20;99.90;;;;;;5121767;28;21055;-84
2023/11/20 09:58:36;;;;;;;13.63;3.00;;;12.20;99.90;;;;;;5113598;28;20478;-81
2023/11/20 10:01:06;;;;;;;10.77;2.87;;;12.40;99.90;;;;;;5117903;28;20463;-82
2023/11/20 10:03:36;;;;;;;8.83;3.03;;;12.40;99.90;;;;;;5109948;28;20470;-82
2023/11/20 10:06:07;;;;;;;8.80;2.77;;;12.60;99.90;;;;;;5117909;28;20516;-85
2023/11/20 10:08:36;;;;;;;15.13;3.23;;;12.70;88.20;;;;;;5127854;28;20524;-81
2023/11/20 10:11:03;;;;;;;9.03;2.50;;;12.70;98.50;;;;;;5113140;28;20581;-80
2023/11/20 10:13:31;;;;;;;9.10;3.50;;;12.70;91.90;;;;;;5106154;28;20439;-81
2023/11/20 10:16:00;;;;;;;9.93;2.60;;;12.70;70.20;;;;;;5104620;28;20467;-81
2023/11/20 10:18:27;;;;;;;11.00;4.33;;;13.00;95.50;;;;;;5106204;28;20484;-79
2023/11/20 10:20:54;;;;;;;11.47;2.93;;;13.20;41.60;;;;;;5116831;27;20801;-81
2023/11/20 10:23:22;;;;;;;9.73;2.80;;;13.20;1.30;;;;;;5107834;28;21179;-81
2023/11/20 10:25:50;;;;;;;8.20;4.13;;;13.10;22.60;;;;;;5118306;28;20462;-81
2023/11/20 10:28:17;;;;;;;9.80;2.67;;;12.90;21.30;;;;;;5107700;28;20523;-80
2023/11/20 10:30:45;;;;;;;10.00;2.90;;;12.70;30.70;;;;;;5112183;28;20488;-82
2023/11/20 10:33:20;;;;;;;13.53;2.93;;;12.50;80.80;;;;;;5111558;28;20793;-81
2023/11/20 10:35:48;;;;;;;7.37;2.63;;;12.40;99.90;;;;;;5111649;28;20531;-82
2023/11/20 10:38:15;;;;;;;12.13;2.90;;;12.50;99.90;;;;;;5105368;28;20490;-79
2023/11/20 10:40:44;;;;;;;9.20;2.77;;;12.80;87.00;;;;;;5098605;27;20455;-82
2023/11/20 10:43:12;;;;;;;8.50;2.10;;;13.10;57.00;;;;;;5103607;28;20487;-82
2023/11/20 10:45:40;;;;;;;9.20;2.23;;;13.50;21.20;;;;;;5105896;28;20920;-79
2023/11/20 10:48:08;;;;;;;8.50;3.10;;;13.30;35.20;;;;;;5112161;28;20479;-79
2023/11/20 10:50:38;;;;;;;7.80;2.90;;;13.30;11.80;;;;;;5113336;28;20532;-82
2023/11/20 10:53:07;;;;;;;11.43;2.77;;;13.40;38.90;;;;;;5105162;28;20541;-80
2023/11/20 10:55:42;;;;;;;9.00;2.40;;;13.30;60.90;;;;;;5108878;27;20457;-80
2023/11/20 10:58:11;;;;;;;11.27;3.53;;;13.30;53.60;;;;;;5107798;28;20459;-82
2023/11/20 11:00:39;;;;;;;8.50;2.83;;;12.90;98.90;;;;;;5109370;28;20463;-81
2023/11/20 11:03:10;;;;;;;5.83;2.23;;;13.00;99.50;;;;;;5112172;28;20484;-82
2023/11/20 11:05:40;;;;;;;12.63;1.90;;;12.80;99.90;;;;;;5111530;28;20476;-81
2023/11/20 11:08:11;;;;;;;8.30;2.37;;;12.90;99.90;;;;;;5107872;28;20982;-81
2023/11/20 11:10:41;;;;;;;7.27;2.60;;;13.00;99.90;;;;;;5102364;28;20870;-78
2023/11/20 11:13:09;;;;;;;10.53;2.87;;;12.70;99.90;;;;;;5108814;28;20442;-82
2023/11/20 11:15:36;;;;;;;6.53;2.10;;;12.80;99.90;;;;;;5112926;28;20541;-80
2023/11/20 11:18:05;;;;;;;6.50;2.30;;;12.70;99.90;;;;;;5105833;28;20963;-80
2023/11/20 11:20:53;;;;;;;8.20;1.73;;;12.70;99.90;;;;;;5108114;28;20446;-80
2023/11/20 11:23:28;;;;;;;4.60;1.50;;;12.60;99.90;;;;;;5101830;28;20579;-82
2023/11/20 11:26:17;;;;;;;8.70;1.70;;;12.60;99.90;;;;;;5113551;28;20473;-82
2023/11/20 11:36:20;;;;;;;5.90;2.43;;;12.60;99.90;;;;;;5093122;28;20541;-82
2023/11/20 11:48:21;;;;;;;8.00;1.50;;;12.50;99.90;;;;;;5150129;22;20844;-83
2023/11/20 11:50:48;;;;;;;9.70;1.80;;;12.50;99.90;;;;;;5099694;28;20449;-86
2023/11/20 11:53:16;;;;;;;7.57;2.33;;;12.40;99.90;;;;;;5099550;28;20444;-85
2023/11/20 11:55:44;;;;;;;8.83;1.97;;;12.50;99.90;;;;;;5098037;28;20527;-86
2023/11/20 11:58:14;;;;;;;7.30;2.20;;;12.40;99.90;;;;;;5097970;28;20456;-82
2023/11/20 12:00:41;;;;;;;7.60;2.17;;;12.40;99.90;;;;;;5096768;28;20451;-81
2023/11/20 12:03:09;;;;;;;5.40;2.57;;;12.40;99.90;;;;;;5091949;28;20543;-81
2023/11/20 12:06:09;;;;;;;6.43;2.30;;;12.40;99.90;;;;;;5086783;28;20484;-81
2023/11/20 12:08:37;;;;;;;12.83;2.87;;;12.50;99.90;;;;;;5090330;28;20451;-82
2023/11/20 12:11:04;;;;;;;5.23;1.93;;;12.60;99.90;;;;;;5089401;28;20531;-82
2023/11/20 12:13:31;;;;;;;11.50;2.53;;;12.80;99.90;;;;;;5090412;28;20899;-82
2023/11/20 12:16:01;;;;;;;8.27;2.60;;;12.90;97.60;;;;;;5098207;28;20929;-81
2023/11/20 12:18:32;;;;;;;8.70;2.27;;;13.00;92.70;;;;;;5093181;28;20454;-82
2023/11/20 12:21:05;;;;;;;4.67;1.80;;;13.00;96.00;;;;;;5093300;28;20447;-82
2023/11/20 12:23:32;;;;;;;8.23;1.80;;;13.10;99.90;;;;;;5086677;28;21056;-82
2023/11/20 12:26:02;;;;;;;7.97;1.97;;;13.10;43.10;;;;;;5091135;28;20479;-82
2023/11/20 12:28:32;;;;;;;5.70;2.07;;;13.10;42.40;;;;;;5087965;28;20455;-82
2023/11/20 12:31:03;;;;;;;8.80;1.60;;;13.10;15.10;;;;;;5098309;28;20442;-80
2023/11/20 12:33:32;;;;;;;8.40;3.10;;;13.30;20.00;;;;;;5100333;28;20449;-81
2023/11/20 12:36:01;;;;;;;4.47;1.60;;;13.30;29.30;;;;;;5097493;28;20476;-81
2023/11/20 12:38:33;;;;;;;7.30;1.60;;;13.50;1.00;;;;;;5107913;28;20803;-82
2023/11/20 12:41:05;;;;;;;4.40;1.87;;;13.50;1.00;;;;;;5094592;28;20524;-81
2023/11/20 12:43:32;;;;;;;3.33;1.60;;;13.30;1.00;;;;;;5093641;28;20548;-82
2023/11/20 12:46:01;;;;;;;4.33;1.40;;;13.20;1.00;;;;;;5093239;28;20840;-82
2023/11/20 12:48:29;;;;;;;9.43;1.90;;;13.00;1.00;;;;;;5105060;28;20508;-82
2023/11/20 12:50:56;;;;;;;6.17;1.43;;;13.00;2.80;;;;;;5106883;28;20468;-82
2023/11/20 12:53:23;;;;;;;6.47;1.80;;;13.10;1.00;;;;;;5103403;28;20453;-81
2023/11/20 12:55:52;;;;;;;5.00;2.00;;;13.60;6.90;;;;;;5100607;28;20483;-82
2023/11/20 12:58:21;;;;;;;3.20;1.57;;;14.00;1.00;;;;;;5105214;28;20464;-82
2023/11/20 13:00:48;;;;;;;8.73;1.93;;;14.30;1.00;;;;;;5103828;28;20480;-81
2023/11/20 13:03:18;;;;;;;2.73;1.20;;;14.20;1.00;;;;;;5098407;28;20471;-81